Time;durP1;ratioP1;P1;durP2;ratioP2;P2;SDS_P1;SDS_P2;PMS_P1;PMS_P2;Temp;Humidity;BMP_temperature;BMP_pressure;BME280_temperature;BME280_humidity;BME280_pressure;Samples;Min_cycle;Max_cycle;Signal;HPM_P1;HPM_P2
2024/02/09 00:00:59;;;;;;;5.27;2.23;;;;;;;2.86;100.00;98944.31;5024212;28;20212;-72
2024/02/09 00:03:26;;;;;;;4.40;1.87;;;;;;;2.83;100.00;98929.63;5025180;28;20192;-72
2024/02/09 00:05:52;;;;;;;5.30;2.27;;;;;;;2.38;100.00;98827.78;5027454;28;20198;-71
2024/02/09 00:08:21;;;;;;;4.83;2.07;;;;;;;2.88;100.00;98911.31;5031466;28;20441;-71
2024/02/09 00:10:47;;;;;;;6.20;2.23;;;;;;;2.79;100.00;98890.50;5026488;28;20478;-71
2024/02/09 00:13:16;;;;;;;5.10;2.13;;;;;;;2.66;100.00;98868.25;5030026;28;20791;-72
2024/02/09 00:15:47;;;;;;;4.70;2.10;;;;;;;1.96;100.00;98752.84;5031187;28;20446;-71
2024/02/09 00:18:16;;;;;;;4.43;1.87;;;;;;;2.79;100.00;98871.97;5030909;28;21418;-72
2024/02/09 00:20:47;;;;;;;4.70;2.00;;;;;;;2.77;100.00;98863.41;5029616;28;20453;-71
2024/02/09 00:23:13;;;;;;;4.83;2.13;;;;;;;1.93;100.00;98747.97;5033030;28;20515;-72
2024/02/09 00:25:38;;;;;;;4.80;1.83;;;;;;;2.39;100.00;98797.66;5023826;28;20450;-71
2024/02/09 00:28:05;;;;;;;5.13;1.90;;;;;;;3.03;100.00;98868.81;5034407;28;20449;-71
2024/02/09 00:30:30;;;;;;;4.40;1.80;;;;;;;2.97;100.00;98882.03;5030441;28;20223;-72
2024/02/09 00:32:59;;;;;;;4.57;1.97;;;;;;;2.82;100.00;98858.34;5031491;28;20827;-72
2024/02/09 00:35:27;;;;;;;4.50;1.70;;;;;;;2.93;100.00;98865.72;5028267;28;20188;-72
2024/02/09 00:37:56;;;;;;;4.10;1.60;;;;;;;2.70;100.00;98823.66;5028290;28;20435;-71
2024/02/09 00:40:25;;;;;;;4.53;1.87;;;;;;;2.57;100.00;98800.59;5028974;28;20535;-72
2024/02/09 00:42:51;;;;;;;4.07;1.60;;;;;;;2.44;100.00;98809.28;5027689;28;20443;-72
2024/02/09 00:45:18;;;;;;;4.93;1.77;;;;;;;2.78;100.00;98826.16;5031743;28;20446;-72
2024/02/09 00:47:46;;;;;;;4.17;1.43;;;;;;;2.75;100.00;98823.06;5030190;28;20454;-71
2024/02/09 00:50:11;;;;;;;4.53;1.70;;;;;;;2.44;100.00;98761.66;5028412;28;20477;-72
2024/02/09 00:52:36;;;;;;;4.03;1.60;;;;;;;2.92;100.00;98822.53;5030223;28;20443;-72
2024/02/09 00:55:02;;;;;;;4.27;1.40;;;;;;;2.62;100.00;98803.47;5022785;28;20192;-72
2024/02/09 00:57:27;;;;;;;4.00;1.50;;;;;;;2.88;100.00;98816.00;5030933;28;20188;-72
2024/02/09 00:59:56;;;;;;;3.50;1.30;;;;;;;2.91;100.00;98810.28;5031512;28;20217;-71
2024/02/09 01:02:24;;;;;;;4.03;1.33;;;;;;;2.61;100.00;98783.31;5042908;28;20195;-71
2024/02/09 01:04:50;;;;;;;3.70;1.20;;;;;;;2.89;100.00;98800.91;5037868;28;20437;-72
2024/02/09 01:07:16;;;;;;;4.47;1.03;;;;;;;2.68;100.00;98768.25;5033744;28;20434;-72
2024/02/09 01:09:42;;;;;;;3.90;1.13;;;;;;;2.82;100.00;98802.75;5034044;28;20476;-72
2024/02/09 02:45:02;;;;;;;3.60;0.83;;;;;;;2.93;100.00;98583.19;5027781;28;20450;-72
2024/02/09 02:47:27;;;;;;;3.10;0.70;;;;;;;2.62;100.00;98525.56;5031834;28;20188;-72
2024/02/09 03:06:17;;;;;;;3.50;0.90;;;;;;;2.71;100.00;98486.47;5027323;28;20449;-72
2024/02/09 03:08:42;;;;;;;3.27;0.80;;;;;;;2.91;100.00;98511.06;5025763;28;20500;-72
2024/02/09 03:11:10;;;;;;;3.40;0.80;;;;;;;2.94;100.00;98515.94;5027634;28;20769;-72
2024/02/09 03:13:36;;;;;;;3.20;0.70;;;;;;;3.05;100.00;98514.50;5025817;28;20188;-71
2024/02/09 03:16:01;;;;;;;3.20;0.70;;;;;;;2.92;100.00;98522.47;5029633;28;20457;-71
2024/02/09 03:18:27;;;;;;;3.50;0.70;;;;;;;3.00;100.00;98524.09;5032677;28;20210;-72
2024/02/09 03:20:58;;;;;;;3.30;0.77;;;;;;;2.80;100.00;98476.47;5024775;28;20265;-72
2024/02/09 03:23:24;;;;;;;3.27;0.70;;;;;;;3.03;100.00;98516.53;5022672;28;20486;-72
2024/02/09 03:25:50;;;;;;;3.57;0.70;;;;;;;2.81;100.00;98441.06;5024478;28;20493;-72
2024/02/09 03:28:18;;;;;;;3.20;0.70;;;;;;;2.82;100.00;98501.72;5029301;28;20187;-72
2024/02/09 03:30:44;;;;;;;3.10;0.70;;;;;;;2.77;100.00;98447.75;5028022;28;20474;-72
2024/02/09 03:33:11;;;;;;;3.83;0.80;;;;;;;3.11;100.00;98484.56;5028459;28;21018;-72
2024/02/09 03:35:37;;;;;;;3.00;0.60;;;;;;;2.83;100.00;98436.34;5021960;28;20438;-72
2024/02/09 03:38:03;;;;;;;3.30;0.60;;;;;;;3.19;100.00;98482.72;5024903;28;21240;-72
2024/02/09 03:40:28;;;;;;;3.07;0.60;;;;;;;2.49;100.00;98386.13;5026327;28;20675;-72
2024/02/09 03:42:54;;;;;;;3.00;0.60;;;;;;;2.26;100.00;98354.84;5028117;28;20192;-72
2024/02/09 03:45:19;;;;;;;3.50;0.70;;;;;;;2.95;100.00;98450.56;5024898;28;20195;-71
2024/02/09 03:47:44;;;;;;;3.10;0.70;;;;;;;3.00;100.00;98461.34;5029479;28;20222;-72
2024/02/09 03:50:11;;;;;;;3.03;0.60;;;;;;;2.87;100.00;98414.56;5026439;28;20265;-72
2024/02/09 03:52:37;;;;;;;3.10;0.70;;;;;;;3.02;100.00;98439.97;5027968;28;20202;-72
2024/02/09 03:55:03;;;;;;;3.17;0.60;;;;;;;2.78;100.00;98399.06;5026824;28;20937;-72
2024/02/09 03:57:29;;;;;;;3.40;0.70;;;;;;;2.88;100.00;98431.25;5027206;28;20449;-72
2024/02/09 03:59:55;;;;;;;3.00;0.63;;;;;;;3.03;100.00;98439.75;5029101;28;20205;-72
2024/02/09 04:02:22;;;;;;;3.47;0.73;;;;;;;2.77;100.00;98382.38;5023958;28;20461;-72
2024/02/09 04:04:48;;;;;;;3.23;0.70;;;;;;;3.07;100.00;98417.13;5027121;28;20438;-71
2024/02/09 04:07:23;;;;;;;3.00;0.60;;;;;;;3.02;100.00;98414.28;5029975;28;20518;-72
2024/02/09 04:09:49;;;;;;;3.10;0.70;;;;;;;2.18;100.00;98291.56;5030756;28;20481;-72
2024/02/09 04:12:14;;;;;;;3.20;0.80;;;;;;;2.98;100.00;98381.31;5031165;28;20918;-72
2024/02/09 04:14:40;;;;;;;3.40;0.70;;;;;;;2.90;100.00;98368.31;5028602;28;20641;-72
2024/02/09 04:17:06;;;;;;;3.20;0.60;;;;;;;2.26;100.00;98274.69;5026101;28;20952;-72
2024/02/09 04:19:33;;;;;;;3.10;0.60;;;;;;;2.55;100.00;98313.06;5025666;28;20208;-72
2024/02/09 04:21:59;;;;;;;3.00;0.60;;;;;;;2.72;100.00;98318.69;5025538;28;20577;-71
2024/02/09 04:24:24;;;;;;;3.10;0.70;;;;;;;2.65;100.00;98320.53;5027237;28;20533;-71
2024/02/09 04:26:54;;;;;;;3.37;0.70;;;;;;;2.65;100.00;98320.53;5033582;28;20195;-72
2024/02/09 04:29:22;;;;;;;3.00;0.60;;;;;;;2.91;100.00;98351.38;5029230;28;20215;-71
2024/02/09 04:31:49;;;;;;;3.00;0.60;;;;;;;3.19;100.00;98390.81;5028695;28;20473;-72
2024/02/09 04:34:15;;;;;;;3.00;0.60;;;;;;;3.07;100.00;98381.91;5024591;28;20469;-72
2024/02/09 04:36:42;;;;;;;3.20;0.70;;;;;;;2.57;100.00;98305.69;5029487;28;20537;-72
2024/02/09 04:39:10;;;;;;;3.20;0.70;;;;;;;2.54;100.00;98294.72;5026968;28;20593;-72
2024/02/09 04:41:47;;;;;;;3.40;0.60;;;;;;;2.46;100.00;98280.72;5030798;28;20728;-72
2024/02/09 04:44:12;;;;;;;3.20;0.70;;;;;;;3.21;100.00;98386.13;5025321;28;20450;-72
2024/02/09 04:46:42;;;;;;;3.30;0.70;;;;;;;2.86;100.00;98352.00;5029042;28;20457;-72
2024/02/09 04:49:10;;;;;;;3.00;0.57;;;;;;;2.76;100.00;98306.66;5025864;28;20212;-72
2024/02/09 04:51:46;;;;;;;3.20;0.60;;;;;;;2.90;100.00;98315.34;5036207;28;20555;-72
2024/02/09 04:54:12;;;;;;;3.00;0.60;;;;;;;3.30;100.00;98352.25;5029156;28;20426;-72
2024/02/09 04:56:39;;;;;;;2.90;0.60;;;;;;;3.25;100.00;98344.09;5044345;28;20513;-72
2024/02/09 04:59:10;;;;;;;3.17;0.67;;;;;;;3.04;100.00;98345.22;5035841;28;20847;-72
2024/02/09 05:01:38;;;;;;;3.10;0.70;;;;;;;3.11;100.00;98315.03;5025039;28;20446;-73
2024/02/09 05:04:14;;;;;;;3.00;0.60;;;;;;;2.65;100.00;98252.53;5024577;28;20446;-74
2024/02/09 05:06:40;;;;;;;3.00;0.60;;;;;;;2.88;100.00;98297.00;5028302;28;20442;-73
2024/02/09 05:09:09;;;;;;;3.00;0.60;;;;;;;2.81;100.00;98277.72;5022171;28;20494;-73
2024/02/09 05:11:36;;;;;;;3.20;0.70;;;;;;;2.64;100.00;98250.91;5025381;28;20998;-73
2024/02/09 05:14:05;;;;;;;3.00;0.60;;;;;;;2.86;100.00;98296.41;5021374;28;20478;-73
2024/02/09 05:16:31;;;;;;;3.00;0.60;;;;;;;3.07;100.00;98303.25;5026311;28;20529;-73
2024/02/09 05:18:57;;;;;;;3.20;0.63;;;;;;;2.76;100.00;98235.19;5025690;28;20478;-73
2024/02/09 05:21:22;;;;;;;3.00;0.60;;;;;;;2.52;100.00;98209.44;5029719;28;20485;-73
2024/02/09 05:23:49;;;;;;;2.97;0.60;;;;;;;3.15;100.00;98308.31;5026583;28;20188;-74
2024/02/09 05:26:14;;;;;;;3.20;0.70;;;;;;;3.14;100.00;98305.84;5022216;28;20201;-73
2024/02/09 05:28:42;;;;;;;3.20;0.70;;;;;;;3.11;100.00;98314.22;5024106;28;20516;-74
2024/02/09 05:31:15;;;;;;;3.10;0.70;;;;;;;3.25;100.00;98301.72;5023387;28;20273;-73
2024/02/09 05:33:42;;;;;;;3.10;0.60;;;;;;;2.79;100.00;98245.34;5033963;28;20445;-74
2024/02/09 05:36:17;;;;;;;3.10;0.67;;;;;;;3.02;100.00;98273.13;5021267;28;20891;-74
2024/02/09 05:38:42;;;;;;;3.00;0.60;;;;;;;2.99;100.00;98265.59;5028531;28;20545;-73
2024/02/09 05:41:07;;;;;;;4.13;0.80;;;;;;;2.74;100.00;98199.34;5024234;28;20514;-73
2024/02/09 05:43:35;;;;;;;3.00;0.60;;;;;;;3.19;100.00;98265.50;5027129;28;20200;-74
2024/02/09 05:46:01;;;;;;;3.10;0.70;;;;;;;2.95;100.00;98238.72;5032055;28;20754;-74
2024/02/09 05:48:26;;;;;;;3.30;0.80;;;;;;;3.19;100.00;98239.81;5028544;28;20527;-74
2024/02/09 05:50:51;;;;;;;3.03;0.70;;;;;;;3.26;100.00;98239.75;5031085;28;20213;-74
2024/02/09 05:53:17;;;;;;;3.20;0.70;;;;;;;3.15;100.00;98236.78;5031795;28;20549;-73
2024/02/09 05:55:45;;;;;;;3.30;0.70;;;;;;;2.77;100.00;98173.25;5033323;28;20635;-73
2024/02/09 05:58:10;;;;;;;3.10;0.70;;;;;;;2.76;100.00;98160.25;5034645;28;20457;-73
2024/02/09 06:00:35;;;;;;;3.30;1.00;;;;;;;3.16;100.00;98221.69;5030378;28;20486;-74
2024/02/09 06:03:02;;;;;;;3.33;0.80;;;;;;;3.23;100.00;98214.50;5023637;28;20185;-74
2024/02/09 06:05:28;;;;;;;3.50;0.80;;;;;;;2.87;100.00;98163.03;5031944;28;20662;-73
2024/02/09 06:07:54;;;;;;;3.33;0.90;;;;;;;3.14;100.00;98199.91;5031818;28;20627;-73
2024/02/09 06:10:19;;;;;;;3.47;0.90;;;;;;;2.92;100.00;98149.13;5032808;28;20611;-74
2024/02/09 06:12:45;;;;;;;3.20;0.80;;;;;;;3.06;100.00;98174.47;5035849;28;20188;-73
2024/02/09 06:15:10;;;;;;;3.37;0.70;;;;;;;3.19;100.00;98180.72;5035844;28;20184;-73
2024/02/09 06:17:38;;;;;;;4.57;0.73;;;;;;;3.18;100.00;98179.88;5032303;28;20639;-74
2024/02/09 06:20:05;;;;;;;3.30;0.70;;;;;;;2.69;100.00;98094.09;5029261;28;20354;-74
2024/02/09 06:22:30;;;;;;;4.27;1.10;;;;;;;3.03;100.00;98123.78;5030780;28;20442;-74
2024/02/09 06:24:57;;;;;;;3.10;0.70;;;;;;;2.82;100.00;98122.34;5031279;28;20442;-73
2024/02/09 06:27:23;;;;;;;3.40;0.90;;;;;;;2.87;100.00;98154.28;5038952;28;20183;-73
2024/02/09 06:29:49;;;;;;;3.20;0.87;;;;;;;3.03;100.00;98142.34;5033174;28;20465;-73
2024/02/09 06:32:15;;;;;;;3.40;0.90;;;;;;;3.17;100.00;98167.69;5037407;28;20919;-73
2024/02/09 06:34:40;;;;;;;3.10;0.70;;;;;;;2.57;100.00;98051.66;5027223;28;20438;-73
2024/02/09 06:37:06;;;;;;;3.20;0.90;;;;;;;2.83;100.00;98121.28;5030980;28;20192;-74
2024/02/09 06:39:31;;;;;;;3.20;0.80;;;;;;;3.22;100.00;98138.72;5026536;28;20208;-74
2024/02/09 06:41:56;;;;;;;3.23;0.87;;;;;;;3.27;100.00;98127.44;5024251;28;20506;-74
2024/02/09 06:44:22;;;;;;;3.40;0.90;;;;;;;3.28;100.00;98139.69;5024636;28;20192;-74
2024/02/09 06:46:47;;;;;;;3.40;1.10;;;;;;;3.29;100.00;98131.50;5039960;28;20198;-73
2024/02/09 06:49:13;;;;;;;3.50;1.10;;;;;;;2.90;100.00;98085.81;5027150;28;20212;-73
2024/02/09 06:51:38;;;;;;;3.70;1.27;;;;;;;3.19;100.00;98120.59;5017971;28;20223;-74
2024/02/09 06:54:04;;;;;;;3.53;1.20;;;;;;;3.39;100.00;98118.59;5027364;28;20415;-74
2024/02/09 06:56:30;;;;;;;3.63;1.20;;;;;;;3.21;100.00;98107.97;5027854;28;20235;-74
2024/02/09 06:58:58;;;;;;;3.60;1.30;;;;;;;3.38;100.00;98114.31;5026162;28;20196;-74
2024/02/09 07:01:24;;;;;;;3.43;1.03;;;;;;;3.32;100.00;98125.75;5026806;28;20203;-74
2024/02/09 07:03:49;;;;;;;3.50;1.20;;;;;;;3.37;100.00;98130.44;5031648;28;20525;-74
2024/02/09 07:06:15;;;;;;;3.80;1.50;;;;;;;2.92;100.00;98070.53;5026695;28;20620;-74
2024/02/09 07:08:40;;;;;;;3.67;1.40;;;;;;;3.18;100.00;98073.94;5028336;28;20190;-74
2024/02/09 07:11:11;;;;;;;3.80;1.33;;;;;;;3.18;100.00;98073.94;5027789;28;20221;-74
2024/02/09 07:13:46;;;;;;;5.20;1.60;;;;;;;2.58;100.00;97983.69;5029137;28;20183;-74
2024/02/09 07:16:12;;;;;;;3.90;1.60;;;;;;;3.49;100.00;98107.47;5032640;28;20445;-74
2024/02/09 07:18:41;;;;;;;3.90;1.50;;;;;;;3.36;100.00;98107.63;5027428;28;20438;-74
2024/02/09 07:21:14;;;;;;;4.03;1.70;;;;;;;3.55;100.00;98108.44;5027533;28;20262;-74
2024/02/09 07:23:40;;;;;;;3.80;1.70;;;;;;;2.78;100.00;98031.13;5029138;28;20500;-74
2024/02/09 07:26:09;;;;;;;6.30;2.00;;;;;;;3.10;100.00;98088.28;5030752;28;20521;-74
2024/02/09 07:28:34;;;;;;;4.30;1.60;;;;;;;3.20;100.00;98039.31;5031325;28;20465;-74
2024/02/09 07:31:00;;;;;;;4.73;1.80;;;;;;;3.13;100.00;97976.63;5026416;28;20627;-74
2024/02/09 07:33:26;;;;;;;3.90;1.50;;;;;;;3.13;100.00;97979.25;5030727;28;20250;-74
2024/02/09 07:35:51;;;;;;;4.20;1.80;;;;;;;3.58;100.00;98029.28;5026931;28;20207;-74
2024/02/09 07:38:16;;;;;;;3.87;1.70;;;;;;;3.44;100.00;98019.06;5028593;28;20676;-74
2024/02/09 07:40:42;;;;;;;3.93;1.60;;;;;;;3.18;100.00;97989.19;5025422;28;20207;-74
2024/02/09 07:43:10;;;;;;;4.50;2.20;;;;;;;3.46;100.00;98017.81;5027390;28;20180;-74
2024/02/09 07:45:36;;;;;;;4.00;1.60;;;;;;;3.66;100.00;98030.03;5034754;28;20188;-74
2024/02/09 07:48:02;;;;;;;5.10;1.43;;;;;;;3.25;100.00;97968.75;5031940;28;20457;-74
2024/02/09 07:50:27;;;;;;;3.73;1.40;;;;;;;3.58;100.00;98029.28;5030296;28;20255;-74
2024/02/09 07:52:53;;;;;;;4.03;1.53;;;;;;;3.46;100.00;98006.41;5029086;28;20439;-74
2024/02/09 07:55:21;;;;;;;4.43;1.47;;;;;;;3.59;100.00;98024.81;5030872;28;20180;-74
2024/02/09 07:57:47;;;;;;;3.80;1.37;;;;;;;3.66;100.00;98025.53;5035270;28;20666;-74
2024/02/09 08:00:18;;;;;;;3.83;1.40;;;;;;;3.46;100.00;97990.50;5030057;28;20442;-74
2024/02/09 08:02:44;;;;;;;4.30;1.43;;;;;;;3.54;100.00;98022.00;5027924;28;20462;-74
2024/02/09 08:05:17;;;;;;;4.73;1.87;;;;;;;3.63;100.00;98002.13;5026674;28;20482;-74
2024/02/09 08:07:46;;;;;;;4.93;1.60;;;;;;;3.42;100.00;97984.84;5025044;28;20449;-74
2024/02/09 08:10:16;;;;;;;3.73;1.43;;;;;;;3.42;100.00;97957.53;5021184;28;20462;-74
2024/02/09 08:12:41;;;;;;;5.33;2.10;;;;;;;3.16;100.00;97923.19;5029956;28;20918;-74
2024/02/09 08:15:11;;;;;;;9.13;2.00;;;;;;;3.44;100.00;97964.22;5040629;28;20548;-74
2024/02/09 08:17:48;;;;;;;4.17;1.67;;;;;;;3.55;100.00;97947.56;5023688;28;20242;-74
2024/02/09 08:20:14;;;;;;;4.85;1.88;;;;;;;3.35;100.00;97894.81;5024139;28;20480;-74
2024/02/09 08:22:44;;;;;;;3.93;1.70;;;;;;;3.42;100.00;97921.25;5026244;28;20192;-73
2024/02/09 08:25:10;;;;;;;4.37;2.00;;;;;;;3.30;100.00;97870.06;5032237;28;23026;-74
2024/02/09 08:27:36;;;;;;;4.00;1.70;;;;;;;3.31;100.00;97856.56;5020843;28;20450;-73
2024/02/09 08:30:01;;;;;;;4.40;2.00;;;;;;;3.22;100.00;97820.03;5030335;28;20459;-73
2024/02/09 08:32:27;;;;;;;4.30;1.73;;;;;;;3.46;100.00;97865.97;5030573;28;20179;-73
2024/02/09 08:34:53;;;;;;;4.50;2.23;;;;;;;3.55;100.00;97883.16;5031264;28;20199;-74
2024/02/09 08:37:19;;;;;;;5.20;2.37;;;;;;;3.61;100.00;97869.00;5029614;28;20175;-74
2024/02/09 08:39:49;;;;;;;4.63;2.20;;;;;;;3.55;100.00;97833.59;5037424;28;21030;-74
2024/02/09 08:42:15;;;;;;;4.13;1.90;;;;;;;3.80;100.00;97833.44;5037656;28;20422;-74
2024/02/09 08:47:31;;;;;;;4.50;2.20;;;;;;;0.91;100.00;97392.66;5066127;28;20497;-74
2024/02/09 08:50:15;;;;;;;;;;;;;;;;;;;;;
2024/02/09 08:52:47;;;;;;;4.33;1.93;;;;;;;1.35;100.00;97420.53;5089433;28;23615;-74
2024/02/09 08:55:26;;;;;;;;;;;;;;;;;;;;;
2024/02/09 08:57:59;;;;;;;4.40;2.10;;;;;;;1.71;100.00;97473.50;5089558;28;20428;-74
2024/02/09 09:00:29;;;;;;;4.63;2.13;;;;;;;1.30;100.00;97358.84;5085324;28;20539;-73
2024/02/09 09:02:55;;;;;;;4.70;2.40;;;;;;;3.03;100.00;97616.19;5086734;28;20496;-73
2024/02/09 09:05:20;;;;;;;4.30;2.17;;;;;;;3.61;100.00;97702.81;5065012;28;21005;-73
2024/02/09 09:07:46;;;;;;;5.60;2.80;;;;;;;3.33;100.00;97660.31;5083584;28;20625;-74
2024/02/09 09:10:11;;;;;;;5.10;2.53;;;;;;;3.07;100.00;97577.63;5071050;28;20233;-73
2024/02/09 09:12:38;;;;;;;5.00;2.60;;;;;;;3.84;100.00;97702.00;5088131;28;20212;-73
2024/02/09 09:15:06;;;;;;;5.17;2.63;;;;;;;3.75;100.00;97650.38;5068441;28;20303;-73
2024/02/09 09:17:31;;;;;;;5.00;2.77;;;;;;;3.57;100.00;97624.03;5081768;28;20428;-73
2024/02/09 09:19:58;;;;;;;4.60;2.10;;;;;;;3.81;100.00;97653.94;5063173;28;21158;-73
2024/02/09 09:22:23;;;;;;;4.93;2.23;;;;;;;3.57;100.00;97603.63;5071015;28;20196;-73
2024/02/09 09:24:49;;;;;;;5.10;2.50;;;;;;;3.61;100.00;97627.81;5083630;28;20786;-73
2024/02/09 09:27:15;;;;;;;4.70;2.20;;;;;;;3.89;100.00;97650.13;5073216;28;20197;-73
2024/02/09 09:29:40;;;;;;;7.53;2.13;;;;;;;3.40;100.00;97534.63;5072196;28;20252;-73
2024/02/09 09:32:06;;;;;;;4.37;2.00;;;;;;;3.95;100.00;97622.69;5070714;28;20452;-74
2024/02/09 09:34:32;;;;;;;4.73;2.37;;;;;;;3.98;100.00;97595.69;5086574;28;20207;-73
2024/02/09 09:36:58;;;;;;;6.00;2.50;;;;;;;4.03;100.00;97596.59;5090131;28;20520;-73
2024/02/09 09:39:24;;;;;;;4.50;1.90;;;;;;;3.76;100.00;97558.41;5088726;28;20474;-74
2024/02/09 09:41:53;;;;;;;6.07;2.17;;;;;;;3.88;100.00;97548.59;5095097;28;20638;-74
2024/02/09 09:44:25;;;;;;;4.63;2.10;;;;;;;3.00;100.00;97425.22;5085198;28;20179;-73
2024/02/09 09:46:51;;;;;;;4.47;2.23;;;;;;;3.78;100.00;97537.78;5075732;28;20435;-74
2024/02/09 09:49:18;;;;;;;5.17;2.30;;;;;;;2.91;100.00;97387.69;5091960;28;20451;-73
2024/02/09 09:51:50;;;;;;;4.50;1.90;;;;;;;3.81;100.00;97542.59;5092854;28;20463;-73
2024/02/09 09:54:21;;;;;;;4.73;2.17;;;;;;;3.70;100.00;97516.94;5071097;28;20446;-73
2024/02/09 09:56:48;;;;;;;5.33;2.20;;;;;;;4.15;100.00;97567.38;5085552;27;20436;-73
2024/02/09 09:59:13;;;;;;;5.30;2.40;;;;;;;4.22;100.00;97562.75;5068847;28;20456;-73
2024/02/09 10:01:39;;;;;;;5.57;2.60;;;;;;;3.70;100.00;97485.91;5086950;28;20508;-73
2024/02/09 10:04:05;;;;;;;4.70;2.07;;;;;;;4.20;100.00;97548.13;5086468;28;20238;-73
2024/02/09 10:06:30;;;;;;;4.50;2.20;;;;;;;4.17;100.00;97532.66;5070457;28;20414;-73
2024/02/09 10:08:56;;;;;;;4.67;2.20;;;;;;;4.20;100.00;97537.50;5087624;27;20294;-73
2024/02/09 10:11:22;;;;;;;4.70;2.33;;;;;;;4.26;100.00;97525.94;5089541;27;20583;-74
2024/02/09 10:13:51;;;;;;;5.00;2.40;;;;;;;3.65;100.00;97427.53;5074951;28;20182;-73
2024/02/09 10:16:18;;;;;;;4.90;2.50;;;;;;;3.63;100.00;97411.06;5072850;28;20434;-73
2024/02/09 10:18:43;;;;;;;5.57;2.90;;;;;;;4.38;100.00;97512.59;5089192;28;20531;-73
2024/02/09 10:21:11;;;;;;;4.90;2.00;;;;;;;4.35;100.00;97510.44;5082191;27;20926;-74
2024/02/09 10:23:37;;;;;;;5.17;2.60;;;;;;;4.38;100.00;97496.69;5068964;28;20191;-73
2024/02/09 10:26:04;;;;;;;4.50;1.97;;;;;;;3.74;100.00;97415.50;5076409;28;20497;-73
2024/02/09 10:28:30;;;;;;;4.90;2.03;;;;;;;3.67;100.00;97366.31;5069531;28;20714;-73
2024/02/09 10:30:59;;;;;;;4.40;2.00;;;;;;;4.47;100.00;97482.75;5070410;28;20459;-73
2024/02/09 10:33:27;;;;;;;5.10;2.70;;;;;;;4.11;100.00;97424.84;5090220;28;20795;-73
2024/02/09 10:35:56;;;;;;;4.87;2.50;;;;;;;4.23;100.00;97444.97;5090378;28;20439;-73
2024/02/09 10:38:23;;;;;;;5.10;2.50;;;;;;;4.34;100.00;97466.34;5072572;28;20435;-73
2024/02/09 10:40:54;;;;;;;5.07;2.57;;;;;;;4.32;100.00;97447.22;5071788;28;20961;-73
2024/02/09 10:43:22;;;;;;;5.33;2.60;;;;;;;4.58;100.00;97514.78;5072283;28;20444;-73
2024/02/09 10:45:50;;;;;;;5.30;2.40;;;;;;;4.24;100.00;97435.16;5075187;28;20452;-73
2024/02/09 10:48:27;;;;;;;5.30;2.60;;;;;;;4.56;100.00;97528.28;5092133;27;20437;-74
2024/02/09 10:50:54;;;;;;;5.00;2.63;;;;;;;4.65;100.00;97545.41;5087677;28;20489;-73
2024/02/09 10:53:23;;;;;;;6.37;3.30;;;;;;;4.62;100.00;97564.47;5087797;27;20443;-73
2024/02/09 10:56:03;;;;;;;5.27;2.83;;;;;;;4.14;100.00;97536.59;5073163;28;20438;-73
2024/02/09 10:58:33;;;;;;;5.80;3.13;;;;;;;4.57;100.00;97641.41;5067427;28;20463;-73
2024/02/09 11:00:59;;;;;;;7.30;3.57;;;;;;;4.71;100.00;97687.00;5087755;28;20528;-73
2024/02/09 11:03:27;;;;;;;6.67;3.80;;;;;;;3.60;100.00;97570.56;5084142;28;20440;-73
2024/02/09 11:05:53;;;;;;;5.80;3.60;;;;;;;3.90;100.00;97636.63;5066564;28;20489;-74
2024/02/09 11:08:20;;;;;;;8.07;4.00;;;;;;;4.79;100.00;97838.00;5084263;28;20447;-74
2024/02/09 11:11:04;;;;;;;7.10;3.80;;;;;;;4.68;100.00;97874.13;5089757;28;20529;-74
2024/02/09 11:13:33;;;;;;;6.70;4.50;;;;;;;4.97;100.00;97937.97;5071933;28;20904;-74
2024/02/09 11:16:02;;;;;;;6.30;4.13;;;;;;;4.52;100.00;97873.03;5070865;28;20527;-75
2024/02/09 11:18:35;;;;;;;6.20;3.93;;;;;;;4.99;100.00;97973.06;5066792;28;20432;-74
2024/02/09 11:21:05;;;;;;;7.07;4.37;;;;;;;5.10;100.00;98020.09;5064408;28;20435;-74
2024/02/09 11:23:32;;;;;;;7.03;4.43;;;;;;;4.96;100.00;98027.47;5078357;28;20439;-74
2024/02/09 11:25:58;;;;;;;7.93;4.47;;;;;;;5.15;100.00;98060.06;5071138;28;22241;-74
2024/02/09 11:28:24;;;;;;;7.70;4.70;;;;;;;4.68;100.00;98019.38;5084525;28;20431;-75
2024/02/09 11:30:54;;;;;;;7.40;4.97;;;;;;;4.81;100.00;98076.78;5074125;28;20840;-76
2024/02/09 11:33:22;;;;;;;7.40;4.80;;;;;;;5.19;100.00;98137.47;5094138;28;20268;-75
2024/02/09 11:35:48;;;;;;;7.10;4.77;;;;;;;4.85;100.00;98115.91;5057979;28;20475;-76
2024/02/09 11:38:14;;;;;;;8.67;5.53;;;;;;;5.29;100.00;98195.34;5064157;28;20440;-73
2024/02/09 11:40:40;;;;;;;8.30;5.33;;;;;;;4.74;100.00;98119.34;5085288;28;20452;-73
2024/02/09 11:43:05;;;;;;;9.13;6.17;;;;;;;5.35;100.00;98205.06;5071772;28;20809;-75
2024/02/09 11:45:31;;;;;;;8.93;5.90;;;;;;;5.33;100.00;98231.06;5087661;28;20224;-75
2024/02/09 11:47:57;;;;;;;9.90;7.03;;;;;;;5.48;100.00;98266.00;5080931;28;21227;-74
2024/02/09 11:50:22;;;;;;;11.40;8.73;;;;;;;5.49;100.00;98270.28;5068369;28;20205;-74
2024/02/09 11:52:51;;;;;;;10.43;7.87;;;;;;;5.55;100.00;98311.09;5074298;28;20187;-74
2024/02/09 11:55:17;;;;;;;9.93;6.80;;;;;;;5.55;100.00;98337.69;5085621;28;20206;-74
2024/02/09 11:57:45;;;;;;;9.20;6.40;;;;;;;5.10;100.00;98292.94;5070202;28;23447;-74
2024/02/09 12:00:13;;;;;;;8.90;6.50;;;;;;;5.06;100.00;98263.34;5087450;28;20447;-74
2024/02/09 12:02:38;;;;;;;10.03;6.53;;;;;;;4.73;100.00;98219.47;5086904;28;20858;-74
2024/02/09 12:05:05;;;;;;;9.97;6.50;;;;;;;5.13;100.00;98316.41;5069646;28;20479;-74
2024/02/09 12:07:30;;;;;;;9.87;7.13;;;;;;;5.13;100.00;98287.97;5090258;28;20181;-74
2024/02/09 12:09:56;;;;;;;10.37;6.90;;;;;;;5.70;100.00;98390.44;5088594;27;20818;-72
2024/02/09 12:12:22;;;;;;;9.17;6.60;;;;;;;5.65;100.00;98369.88;5063934;28;20205;-73
2024/02/09 12:14:47;;;;;;;10.43;6.53;;;;;;;5.69;100.00;98364.91;5068368;28;20186;-74
2024/02/09 12:17:13;;;;;;;9.90;6.87;;;;;;;5.56;100.00;98353.44;5086058;28;20450;-74
2024/02/09 12:19:39;;;;;;;13.47;7.30;;;;;;;5.19;100.00;98302.22;5069479;28;20209;-74
2024/02/09 12:22:05;;;;;;;9.73;7.10;;;;;;;5.31;100.00;98319.00;5083183;28;20182;-73
2024/02/09 12:24:31;;;;;;;9.77;6.83;;;;;;;5.87;100.00;98410.88;5068019;28;20459;-74
2024/02/09 12:26:57;;;;;;;10.90;7.70;;;;;;;5.74;100.00;98395.09;5086117;28;20436;-74
2024/02/09 12:29:24;;;;;;;9.67;6.90;;;;;;;5.89;100.00;98403.44;5072202;28;20210;-74
2024/02/09 12:31:50;;;;;;;10.27;7.53;;;;;;;6.00;100.00;98415.19;5086589;28;20216;-74
2024/02/09 12:34:16;;;;;;;11.73;7.93;;;;;;;5.59;100.00;98345.00;5087372;28;20445;-74
2024/02/09 12:36:55;;;;;;;11.07;8.27;;;;;;;5.87;100.00;98399.41;5073027;28;20189;-74
2024/02/09 12:39:22;;;;;;;11.77;7.80;;;;;;;5.57;100.00;98356.88;5072981;28;20898;-74
2024/02/09 12:41:58;;;;;;;12.13;8.50;;;;;;;5.43;100.00;98313.72;5085387;28;20518;-74
2024/02/09 12:44:27;;;;;;;11.97;8.40;;;;;;;6.18;100.00;98440.13;5088203;28;23335;-73
2024/02/09 12:46:55;;;;;;;12.50;8.00;;;;;;;6.28;100.00;98493.63;5071633;28;20856;-74
2024/02/09 12:49:23;;;;;;;10.90;7.83;;;;;;;6.04;100.00;98519.34;5090785;28;20523;-74
2024/02/09 12:51:51;;;;;;;16.17;8.80;;;;;;;6.41;100.00;98618.56;5089719;28;20468;-74
2024/02/09 12:54:16;;;;;;;12.20;9.07;;;;;;;6.73;100.00;98730.22;5078190;28;20500;-74
2024/02/09 12:56:42;;;;;;;13.23;9.63;;;;;;;6.70;100.00;98797.25;5073481;28;20428;-73
2024/02/09 12:59:07;;;;;;;12.30;9.13;;;;;;;6.62;100.00;98829.53;5090544;28;20210;-74
2024/02/09 13:01:33;;;;;;;13.90;9.27;;;;;;;6.36;100.00;98838.59;5092106;28;20189;-73
2024/02/09 13:03:58;;;;;;;13.93;8.20;;;;;;;6.33;100.00;98872.66;5091632;28;20187;-74
2024/02/09 13:06:26;;;;;;;13.97;9.47;;;;;;;6.34;100.00;98892.91;5094557;28;20208;-74
2024/02/09 13:08:56;;;;;;;17.57;8.80;;;;;;;6.91;100.00;99002.00;5076232;28;20209;-73
2024/02/09 13:11:23;;;;;;;12.27;9.00;;;;;;;5.86;100.00;98874.84;5095066;27;20467;-73
2024/02/09 13:13:49;;;;;;;13.13;9.00;;;;;;;6.83;100.00;99098.25;5090707;28;20435;-74
2024/02/09 13:16:14;;;;;;;12.93;8.43;;;;;;;6.63;100.00;99101.06;5092374;28;20450;-74
2024/02/09 13:18:39;;;;;;;13.30;8.67;;;;;;;6.72;100.00;99057.13;5074414;28;20220;-73
2024/02/09 13:21:07;;;;;;;12.47;8.70;;;;;;;6.93;100.00;99100.41;5091703;28;20300;-74
2024/02/09 13:23:34;;;;;;;12.60;8.33;;;;;;;6.75;100.00;99061.19;5074108;28;20255;-74
2024/02/09 13:26:00;;;;;;;11.70;8.10;;;;;;;6.44;100.00;99030.09;5074515;28;20424;-74